Time;durP1;ratioP1;P1;durP2;ratioP2;P2;SDS_P1;SDS_P2;PMS_P1;PMS_P2;Temp;Humidity;BMP_temperature;BMP_pressure;BME280_temperature;BME280_humidity;BME280_pressure;Samples;Min_cycle;Max_cycle;Signal;HPM_P1;HPM_P2
2022/03/26 00:02:21;;;;;;;;;;;6.60;99.90;;;;;;5030742;28;19925;-76
2022/03/26 00:04:47;;;;;;;;;;;6.60;99.90;;;;;;5027040;28;20331;-74
2022/03/26 00:07:14;;;;;;;;;;;6.50;99.90;;;;;;5031811;28;19925;-75
2022/03/26 00:09:40;;;;;;;;;;;6.50;99.90;;;;;;5027892;28;19926;-75
2022/03/26 00:12:08;;;;;;;;;;;6.60;99.90;;;;;;5022813;28;20021;-75
2022/03/26 00:14:34;;;;;;;;;;;6.50;99.90;;;;;;5029023;28;20008;-76
2022/03/26 00:17:01;;;;;;;;;;;6.50;99.90;;;;;;5020988;28;20369;-75
2022/03/26 00:19:27;;;;;;;;;;;6.40;99.90;;;;;;5025186;28;19933;-75
2022/03/26 00:21:54;;;;;;;;;;;6.50;99.90;;;;;;5033566;28;19925;-75
2022/03/26 00:24:20;;;;;;;;;;;6.40;99.90;;;;;;5022906;28;19925;-75
2022/03/26 00:26:47;;;;;;;;;;;6.40;99.90;;;;;;5022704;28;20313;-75
2022/03/26 00:29:14;;;;;;;;;;;6.40;99.90;;;;;;5011802;28;19956;-75
2022/03/26 00:31:40;;;;;;;;;;;6.40;99.90;;;;;;5016488;28;19925;-75
2022/03/26 00:34:08;;;;;;;;;;;6.40;99.90;;;;;;5011083;28;19937;-76
2022/03/26 00:36:34;;;;;;;;;;;6.40;99.90;;;;;;5021134;28;20309;-77
2022/03/26 00:39:01;;;;;;;;;;;6.40;99.90;;;;;;5015092;28;20284;-75
2022/03/26 00:41:28;;;;;;;;;;;6.40;99.90;;;;;;5020370;28;19936;-74
2022/03/26 00:43:55;;;;;;;;;;;6.40;99.90;;;;;;5016300;28;20534;-76
2022/03/26 00:46:21;;;;;;;;;;;6.40;99.90;;;;;;5030123;28;19929;-75
2022/03/26 00:48:48;;;;;;;;;;;6.30;99.90;;;;;;5025593;28;19972;-75
2022/03/26 00:51:15;;;;;;;;;;;6.40;99.90;;;;;;5028636;28;19925;-75
2022/03/26 00:53:42;;;;;;;;;;;6.40;99.90;;;;;;5031847;28;19986;-75
2022/03/26 00:56:08;;;;;;;;;;;6.30;99.90;;;;;;5023872;28;20304;-76
2022/03/26 00:58:35;;;;;;;;;;;6.30;99.90;;;;;;5032897;28;19929;-76
2022/03/26 01:01:01;;;;;;;;;;;6.30;99.90;;;;;;5028011;28;19925;-75
2022/03/26 01:03:28;;;;;;;;;;;6.30;99.90;;;;;;5027118;28;19929;-76
2022/03/26 01:05:54;;;;;;;;;;;6.30;99.90;;;;;;5022263;28;19932;-75
2022/03/26 01:08:21;;;;;;;;;;;6.30;99.90;;;;;;5033184;28;19936;-74
2022/03/26 01:10:47;;;;;;;;;;;6.30;99.90;;;;;;5030704;28;19936;-76
2022/03/26 01:13:14;;;;;;;;;;;6.20;99.90;;;;;;5028822;28;19925;-75
2022/03/26 01:15:41;;;;;;;;;;;6.20;99.90;;;;;;5012973;28;20426;-76
2022/03/26 01:18:07;;;;;;;;;;;6.20;99.90;;;;;;5017531;28;19933;-76
2022/03/26 01:20:34;;;;;;;;;;;6.20;99.90;;;;;;5026171;28;19932;-75
2022/03/26 01:23:00;;;;;;;;;;;6.20;99.90;;;;;;5031460;28;19936;-76
2022/03/26 01:25:27;;;;;;;;;;;6.20;99.90;;;;;;5012156;28;19925;-76
2022/03/26 01:27:53;;;;;;;;;;;6.20;99.90;;;;;;5032139;28;19925;-75
2022/03/26 01:30:20;;;;;;;;;;;6.10;99.90;;;;;;5023294;28;19988;-76
2022/03/26 01:32:48;;;;;;;;;;;6.10;99.90;;;;;;5029988;28;19952;-76
2022/03/26 01:35:15;;;;;;;;;;;6.00;99.90;;;;;;5021514;28;20456;-76
2022/03/26 01:37:41;;;;;;;;;;;6.00;99.90;;;;;;5030393;28;19932;-78
2022/03/26 01:40:08;;;;;;;;;;;5.90;99.90;;;;;;5032768;28;20387;-76
2022/03/26 01:42:34;;;;;;;;;;;5.90;99.90;;;;;;5020732;28;19932;-75
2022/03/26 01:45:01;;;;;;;;;;;5.90;99.90;;;;;;5016297;28;19928;-75
2022/03/26 01:47:28;;;;;;;;;;;5.80;99.90;;;;;;5030334;28;19944;-74
2022/03/26 01:49:54;;;;;;;;;;;5.90;99.90;;;;;;5022905;28;19925;-75
2022/03/26 01:52:21;;;;;;;;;;;5.90;99.90;;;;;;5004750;28;19925;-75
2022/03/26 01:54:47;;;;;;;;;;;5.80;99.90;;;;;;5026384;28;19924;-76
2022/03/26 01:57:14;;;;;;;;;;;5.90;99.90;;;;;;5023191;28;19925;-75
2022/03/26 01:59:40;;;;;;;;;;;5.80;99.90;;;;;;5024378;28;19949;-75
2022/03/26 02:02:07;;;;;;;;;;;5.80;99.90;;;;;;5003689;28;19925;-76
2022/03/26 02:04:34;;;;;;;;;;;5.80;99.90;;;;;;5015336;28;19925;-75
2022/03/26 02:07:01;;;;;;;;;;;5.70;99.90;;;;;;5004823;28;19925;-75
2022/03/26 02:09:33;;;;;;;;;;;5.70;99.90;;;;;;5023522;28;19967;-78
2022/03/26 02:11:59;;;;;;;;;;;5.70;99.90;;;;;;5025712;28;19925;-75
2022/03/26 02:14:26;;;;;;;;;;;5.60;99.90;;;;;;5015957;28;19931;-75
2022/03/26 02:16:52;;;;;;;;;;;5.60;99.90;;;;;;5027345;28;19931;-74
2022/03/26 02:19:19;;;;;;;;;;;5.60;99.90;;;;;;5007403;28;19929;-75
2022/03/26 02:21:49;;;;;;;;;;;5.60;99.90;;;;;;5032373;28;19999;-76
2022/03/26 02:24:15;;;;;;;;;;;5.50;99.90;;;;;;5031963;28;19929;-75
2022/03/26 02:26:42;;;;;;;;;;;5.50;99.90;;;;;;5025999;28;20300;-73
2022/03/26 02:29:08;;;;;;;;;;;5.50;99.90;;;;;;5019627;28;20299;-75
2022/03/26 02:31:35;;;;;;;;;;;5.50;99.90;;;;;;5029062;28;20373;-75
2022/03/26 02:34:01;;;;;;;;;;;5.50;99.90;;;;;;5037388;28;19925;-74
2022/03/26 02:36:28;;;;;;;;;;;5.50;99.90;;;;;;5027796;28;19972;-75
2022/03/26 02:38:54;;;;;;;;;;;5.50;99.90;;;;;;5002926;28;19933;-75
2022/03/26 02:41:21;;;;;;;;;;;5.50;99.90;;;;;;5028473;28;19932;-76
2022/03/26 02:43:47;;;;;;;;;;;5.50;99.90;;;;;;5029187;28;19925;-76
2022/03/26 02:46:14;;;;;;;;;;;5.60;99.90;;;;;;5014691;28;19925;-75
2022/03/26 02:48:43;;;;;;;;;;;5.60;99.90;;;;;;5021070;28;19932;-77
2022/03/26 02:51:10;;;;;;;;;;;5.60;99.90;;;;;;5016927;28;19925;-75
2022/03/26 02:53:36;;;;;;;;;;;5.60;99.90;;;;;;5025246;28;20449;-76
2022/03/26 02:56:03;;;;;;;;;;;5.60;99.90;;;;;;5030007;28;19948;-76
2022/03/26 02:58:30;;;;;;;;;;;5.60;99.90;;;;;;5009546;28;20008;-75
2022/03/26 03:00:57;;;;;;;;;;;5.60;99.90;;;;;;5004290;28;19929;-75
2022/03/26 03:03:23;;;;;;;;;;;5.60;99.90;;;;;;5030771;28;19925;-75
2022/03/26 03:05:50;;;;;;;;;;;5.60;99.90;;;;;;5026697;28;19925;-76
2022/03/26 03:08:16;;;;;;;;;;;5.50;99.90;;;;;;5031601;28;19932;-75
2022/03/26 03:10:43;;;;;;;;;;;5.50;99.90;;;;;;5003919;28;19925;-75
2022/03/26 03:13:10;;;;;;;;;;;5.60;99.90;;;;;;5023163;28;20317;-75
2022/03/26 03:15:36;;;;;;;;;;;5.50;99.90;;;;;;5003966;28;19925;-74
2022/03/26 03:18:03;;;;;;;;;;;5.50;99.90;;;;;;5028215;28;20007;-75
2022/03/26 03:20:30;;;;;;;;;;;5.50;99.90;;;;;;5004579;28;19925;-75
2022/03/26 03:22:57;;;;;;;;;;;5.50;99.90;;;;;;5008940;28;19928;-75
2022/03/26 03:25:25;;;;;;;;;;;5.50;99.90;;;;;;5020376;28;19925;-75
2022/03/26 03:27:52;;;;;;;;;;;5.50;99.90;;;;;;5021808;28;19925;-76
2022/03/26 03:30:18;;;;;;;;;;;5.50;99.90;;;;;;5027516;28;19926;-76
2022/03/26 03:32:45;;;;;;;;;;;5.50;99.90;;;;;;5019188;28;19929;-76
2022/03/26 03:35:11;;;;;;;;;;;5.50;99.90;;;;;;5003236;28;20547;-76
2022/03/26 03:37:38;;;;;;;;;;;5.50;99.90;;;;;;5012104;28;20287;-76
2022/03/26 03:40:05;;;;;;;;;;;5.50;99.90;;;;;;5015719;28;20336;-76
2022/03/26 03:42:31;;;;;;;;;;;5.50;99.90;;;;;;5031429;28;19925;-74
2022/03/26 03:44:58;;;;;;;;;;;5.50;99.90;;;;;;5043696;28;19926;-76
2022/03/26 03:47:24;;;;;;;;;;;5.50;99.90;;;;;;5006781;28;19948;-75
2022/03/26 03:49:51;;;;;;;;;;;5.50;99.90;;;;;;5023379;28;19929;-78
2022/03/26 03:52:17;;;;;;;;;;;5.50;99.90;;;;;;5030542;28;19929;-75
2022/03/26 03:54:44;;;;;;;;;;;5.50;99.90;;;;;;5017155;28;19931;-75
2022/03/26 03:57:11;;;;;;;;;;;5.60;99.90;;;;;;5023864;28;19933;-75
2022/03/26 03:59:40;;;;;;;;;;;5.60;99.90;;;;;;5029046;28;19926;-76
2022/03/26 04:02:08;;;;;;;;;;;5.60;99.90;;;;;;5029694;28;19925;-75
2022/03/26 04:04:34;;;;;;;;;;;5.70;99.90;;;;;;5015726;28;19929;-75
2022/03/26 04:07:01;;;;;;;;;;;5.60;99.90;;;;;;5017745;28;20272;-76
2022/03/26 04:09:27;;;;;;;;;;;5.60;99.90;;;;;;5018127;28;20392;-75
2022/03/26 04:11:54;;;;;;;;;;;5.70;99.90;;;;;;5019591;28;19925;-78
2022/03/26 04:14:20;;;;;;;;;;;5.60;99.90;;;;;;5029918;28;19926;-75
2022/03/26 04:16:47;;;;;;;;;;;5.70;99.90;;;;;;5004693;28;19929;-75
2022/03/26 04:19:14;;;;;;;;;;;5.70;99.90;;;;;;5015466;28;20638;-75
2022/03/26 04:21:40;;;;;;;;;;;5.70;99.90;;;;;;5020525;28;19948;-75
2022/03/26 04:24:07;;;;;;;;;;;5.70;99.90;;;;;;5022141;28;19933;-75
2022/03/26 04:26:34;;;;;;;;;;;5.70;99.90;;;;;;5025511;28;20011;-75
2022/03/26 04:29:01;;;;;;;;;;;5.60;99.90;;;;;;5028154;28;20431;-75
2022/03/26 04:31:28;;;;;;;;;;;5.60;99.90;;;;;;5027039;28;19971;-75
2022/03/26 04:33:54;;;;;;;;;;;5.70;99.90;;;;;;5025413;28;19929;-74
2022/03/26 04:36:21;;;;;;;;;;;5.80;99.90;;;;;;5024109;28;19932;-75
2022/03/26 04:38:48;;;;;;;;;;;5.80;99.90;;;;;;5007224;28;19932;-75
2022/03/26 04:41:14;;;;;;;;;;;5.80;99.90;;;;;;5015689;28;19926;-75
2022/03/26 04:43:41;;;;;;;;;;;5.80;99.90;;;;;;5030091;28;20371;-75
2022/03/26 04:46:08;;;;;;;;;;;5.80;99.90;;;;;;5030135;28;20368;-75
2022/03/26 04:48:35;;;;;;;;;;;5.80;99.90;;;;;;5005942;28;19926;-76
2022/03/26 04:51:02;;;;;;;;;;;5.70;99.90;;;;;;5026411;28;20351;-75
2022/03/26 04:53:28;;;;;;;;;;;5.70;99.90;;;;;;5040869;28;20304;-75
2022/03/26 04:55:55;;;;;;;;;;;5.70;99.90;;;;;;5032363;28;19936;-76
2022/03/26 04:58:21;;;;;;;;;;;5.80;99.90;;;;;;5030929;28;19925;-75
2022/03/26 05:00:48;;;;;;;;;;;5.80;99.90;;;;;;5022809;28;19925;-75
2022/03/26 05:03:14;;;;;;;;;;;5.80;99.90;;;;;;5019534;28;19925;-73
2022/03/26 05:05:41;;;;;;;;;;;5.80;99.90;;;;;;5015204;28;19926;-75
2022/03/26 05:08:07;;;;;;;;;;;5.80;99.90;;;;;;5026151;28;19929;-75
2022/03/26 05:10:34;;;;;;;;;;;5.70;99.90;;;;;;5022488;28;19932;-75
2022/03/26 05:13:00;;;;;;;;;;;5.70;99.90;;;;;;5024764;28;19932;-78
2022/03/26 05:15:28;;;;;;;;;;;5.70;99.90;;;;;;5021956;28;19932;-74
2022/03/26 05:17:55;;;;;;;;;;;5.70;99.90;;;;;;5031421;28;20281;-74
2022/03/26 05:20:22;;;;;;;;;;;5.70;99.90;;;;;;5025336;28;20413;-75
2022/03/26 05:22:49;;;;;;;;;;;5.70;99.90;;;;;;5034223;28;19925;-73
2022/03/26 05:25:15;;;;;;;;;;;5.70;99.90;;;;;;5011452;28;19929;-74
2022/03/26 05:27:42;;;;;;;;;;;5.60;99.90;;;;;;5006502;28;19929;-75
2022/03/26 05:30:09;;;;;;;;;;;5.70;99.90;;;;;;5005972;28;19966;-75
2022/03/26 05:32:35;;;;;;;;;;;5.60;99.90;;;;;;5013792;28;19932;-74
2022/03/26 05:35:03;;;;;;;;;;;5.60;99.90;;;;;;5002145;28;19934;-77
2022/03/26 05:37:30;;;;;;;;;;;5.60;99.90;;;;;;5023370;28;20004;-75
2022/03/26 05:39:56;;;;;;;;;;;5.60;99.90;;;;;;5028491;28;19925;-75
2022/03/26 05:42:23;;;;;;;;;;;5.60;99.90;;;;;;5023145;28;19957;-75
2022/03/26 05:44:50;;;;;;;;;;;5.60;99.90;;;;;;5018425;28;19936;-75
2022/03/26 05:47:17;;;;;;;;;;;5.60;99.90;;;;;;5020502;28;19941;-75
2022/03/26 05:49:43;;;;;;;;;;;5.70;99.90;;;;;;5013157;28;19925;-75
2022/03/26 05:52:10;;;;;;;;;;;5.70;99.90;;;;;;5026324;28;20320;-75
2022/03/26 05:54:36;;;;;;;;;;;5.80;99.90;;;;;;5020323;28;20373;-73
2022/03/26 05:57:03;;;;;;;;;;;5.80;99.90;;;;;;5026883;28;20316;-78
2022/03/26 05:59:31;;;;;;;;;;;5.90;99.90;;;;;;4995926;28;19965;-75
2022/03/26 06:01:58;;;;;;;;;;;6.00;99.90;;;;;;5020255;28;19975;-75
2022/03/26 06:04:24;;;;;;;;;;;6.10;99.90;;;;;;5022873;28;19921;-73
2022/03/26 06:06:51;;;;;;;;;;;6.10;99.90;;;;;;5024130;28;19932;-75
2022/03/26 06:09:17;;;;;;;;;;;6.20;99.90;;;;;;5022787;28;19932;-75
2022/03/26 06:11:44;;;;;;;;;;;6.30;99.90;;;;;;5009482;28;19925;-75
2022/03/26 06:14:10;;;;;;;;;;;6.50;99.90;;;;;;5011115;28;19937;-75
2022/03/26 06:16:37;;;;;;;;;;;6.50;99.90;;;;;;5008960;28;19930;-75
2022/03/26 06:19:03;;;;;;;;;;;6.60;99.90;;;;;;5011521;28;20400;-74
2022/03/26 06:21:30;;;;;;;;;;;6.70;99.90;;;;;;5001429;28;19956;-76
2022/03/26 06:23:58;;;;;;;;;;;6.80;99.90;;;;;;5007664;28;19933;-76
2022/03/26 06:26:25;;;;;;;;;;;6.90;99.90;;;;;;4995709;28;19981;-77
2022/03/26 06:28:51;;;;;;;;;;;7.00;99.90;;;;;;5002064;28;19926;-77
2022/03/26 06:31:18;;;;;;;;;;;7.10;99.90;;;;;;5001324;28;19932;-77
2022/03/26 06:33:44;;;;;;;;;;;7.30;99.90;;;;;;4994933;28;19933;-77
2022/03/26 06:36:11;;;;;;;;;;;7.40;99.90;;;;;;4991720;28;19937;-77
2022/03/26 06:38:41;;;;;;;;;;;7.60;99.90;;;;;;4997073;28;20016;-77
2022/03/26 06:41:07;;;;;;;;;;;7.70;99.90;;;;;;4993566;28;20364;-79
2022/03/26 06:43:34;;;;;;;;;;;7.90;99.90;;;;;;4995832;28;19976;-79
2022/03/26 06:46:01;;;;;;;;;;;8.00;99.90;;;;;;4994542;28;19976;-76
2022/03/26 06:48:27;;;;;;;;;;;8.20;99.90;;;;;;4996608;28;19921;-77
2022/03/26 06:50:54;;;;;;;;;;;8.30;99.90;;;;;;5008825;28;19929;-77
2022/03/26 06:53:20;;;;;;;;;;;8.40;99.90;;;;;;4996058;28;19936;-77
2022/03/26 06:55:47;;;;;;;;;;;8.60;99.90;;;;;;4994816;28;19976;-76
2022/03/26 06:58:13;;;;;;;;;;;8.60;99.90;;;;;;4992688;28;19925;-77
2022/03/26 07:00:40;;;;;;;;;;;8.80;99.90;;;;;;4995574;28;19930;-76
2022/03/26 07:03:07;;;;;;;;;;;8.80;99.90;;;;;;5000263;28;19933;-76
2022/03/26 07:05:33;;;;;;;;;;;8.90;99.90;;;;;;4992777;28;20004;-77
2022/03/26 07:08:00;;;;;;;;;;;8.80;99.90;;;;;;4993902;28;19933;-77
2022/03/26 07:10:26;;;;;;;;;;;8.90;99.90;;;;;;4993385;28;19926;-77
2022/03/26 07:12:53;;;;;;;;;;;9.10;99.90;;;;;;4993933;28;19944;-77
2022/03/26 07:15:19;;;;;;;;;;;9.30;99.90;;;;;;5000226;28;19929;-76
2022/03/26 07:17:46;;;;;;;;;;;9.40;99.90;;;;;;4995452;28;19926;-76
2022/03/26 07:20:14;;;;;;;;;;;9.50;99.90;;;;;;4997779;28;19933;-77
2022/03/26 07:22:41;;;;;;;;;;;9.60;99.90;;;;;;4997707;28;19953;-76
2022/03/26 07:25:07;;;;;;;;;;;9.70;99.90;;;;;;4997842;28;19926;-76
2022/03/26 07:27:34;;;;;;;;;;;9.70;99.90;;;;;;4992854;28;19932;-77
2022/03/26 07:30:01;;;;;;;;;;;9.80;99.90;;;;;;4996430;28;19930;-77
2022/03/26 07:32:27;;;;;;;;;;;9.90;99.90;;;;;;4993397;28;19926;-77
2022/03/26 07:34:54;;;;;;;;;;;10.10;99.90;;;;;;4996743;28;19930;-77
2022/03/26 07:37:20;;;;;;;;;;;10.20;99.90;;;;;;4991181;28;19932;-76
2022/03/26 07:39:47;;;;;;;;;;;10.30;99.90;;;;;;4996255;28;19925;-74
2022/03/26 07:42:13;;;;;;;;;;;10.20;99.90;;;;;;4994874;28;19968;-79
2022/03/26 07:44:40;;;;;;;;;;;10.40;99.90;;;;;;4993427;28;19940;-77
2022/03/26 07:47:06;;;;;;;;;;;10.40;99.90;;;;;;4997863;28;19933;-76
2022/03/26 07:49:33;;;;;;;;;;;10.40;99.90;;;;;;4996923;28;19928;-77
2022/03/26 07:52:00;;;;;;;;;;;10.50;99.90;;;;;;4994805;28;19932;-76
2022/03/26 07:54:27;;;;;;;;;;;10.30;99.90;;;;;;5004695;28;20373;-77
2022/03/26 07:56:53;;;;;;;;;;;10.40;99.90;;;;;;4998112;28;19972;-77
2022/03/26 07:59:20;;;;;;;;;;;10.60;99.90;;;;;;4996714;28;19936;-78
2022/03/26 08:01:46;;;;;;;;;;;10.50;99.90;;;;;;4994878;28;19932;-76
2022/03/26 08:04:13;;;;;;;;;;;10.70;99.90;;;;;;4992599;28;19940;-80
2022/03/26 08:06:40;;;;;;;;;;;10.60;99.90;;;;;;4995164;28;20300;-79
2022/03/26 08:09:06;;;;;;;;;;;10.70;99.90;;;;;;4992717;28;19933;-77
2022/03/26 08:11:33;;;;;;;;;;;10.70;99.90;;;;;;4992835;28;19933;-76
2022/03/26 08:14:00;;;;;;;;;;;10.80;99.90;;;;;;4994918;28;19932;-78
2022/03/26 08:16:26;;;;;;;;;;;10.80;99.90;;;;;;4995043;28;20013;-77
2022/03/26 08:18:53;;;;;;;;;;;11.10;99.90;;;;;;4994110;28;19932;-77
2022/03/26 08:21:20;;;;;;;;;;;11.20;99.90;;;;;;4994230;28;20393;-77
2022/03/26 08:23:47;;;;;;;;;;;11.20;99.90;;;;;;4996540;28;19925;-77
2022/03/26 08:26:23;;;;;;;;;;;11.30;99.90;;;;;;4995400;28;19980;-77
2022/03/26 08:28:49;;;;;;;;;;;11.40;99.90;;;;;;4995072;28;19926;-77
2022/03/26 08:31:17;;;;;;;;;;;11.60;99.90;;;;;;4995973;28;19926;-79
2022/03/26 08:33:43;;;;;;;;;;;11.70;99.90;;;;;;4996873;28;20379;-77
2022/03/26 08:36:10;;;;;;;;;;;11.80;99.90;;;;;;4995785;28;19948;-77
2022/03/26 08:38:36;;;;;;;;;;;11.80;99.90;;;;;;4996963;28;20403;-77
2022/03/26 08:41:03;;;;;;;;;;;11.80;99.90;;;;;;4995256;28;20365;-77
2022/03/26 08:43:30;;;;;;;;;;;11.80;99.90;;;;;;4994001;28;19925;-77
2022/03/26 08:45:56;;;;;;;;;;;11.90;99.90;;;;;;4995822;28;19926;-77
2022/03/26 08:48:23;;;;;;;;;;;12.10;99.90;;;;;;4998571;28;20365;-78
2022/03/26 08:50:49;;;;;;;;;;;12.00;99.90;;;;;;4996599;28;19956;-78
2022/03/26 08:53:16;;;;;;;;;;;12.10;99.90;;;;;;4997573;28;20383;-78
2022/03/26 08:55:42;;;;;;;;;;;12.00;99.90;;;;;;4996937;28;19926;-78
2022/03/26 08:58:09;;;;;;;;;;;12.20;99.90;;;;;;4998791;28;19925;-77
2022/03/26 09:00:36;;;;;;;;;;;12.40;99.90;;;;;;4999103;28;19926;-78
2022/03/26 09:03:02;;;;;;;;;;;12.40;99.90;;;;;;4997913;28;19930;-77
2022/03/26 09:05:29;;;;;;;;;;;12.50;99.90;;;;;;5000545;28;19925;-77
2022/03/26 09:07:55;;;;;;;;;;;12.60;99.90;;;;;;4999976;28;20369;-77
2022/03/26 09:10:22;;;;;;;;;;;12.50;99.90;;;;;;4995372;28;20296;-79
2022/03/26 09:12:48;;;;;;;;;;;12.60;99.90;;;;;;5000430;28;20378;-78
2022/03/26 09:15:15;;;;;;;;;;;12.70;99.90;;;;;;4996924;28;19926;-77
2022/03/26 09:17:41;;;;;;;;;;;12.90;99.90;;;;;;4992825;28;19933;-78
2022/03/26 09:20:08;;;;;;;;;;;13.10;99.90;;;;;;4999988;28;19929;-78
2022/03/26 09:22:34;;;;;;;;;;;13.10;99.90;;;;;;4989781;28;19936;-78
2022/03/26 09:25:01;;;;;;;;;;;13.10;99.90;;;;;;4996668;28;20369;-78
2022/03/26 09:27:27;;;;;;;;;;;13.20;99.90;;;;;;4998866;28;19933;-78
2022/03/26 09:29:54;;;;;;;;;;;13.30;99.90;;;;;;5003695;28;19934;-78
2022/03/26 09:32:22;;;;;;;;;;;13.30;99.90;;;;;;4999124;28;19930;-77
2022/03/26 09:34:48;;;;;;;;;;;13.60;99.90;;;;;;5004514;28;20504;-78
2022/03/26 09:37:15;;;;;;;;;;;13.70;99.90;;;;;;4992658;28;19925;-77
2022/03/26 09:39:41;;;;;;;;;;;13.70;99.90;;;;;;4994389;28;20805;-78
2022/03/26 09:42:08;;;;;;;;;;;13.70;99.90;;;;;;4995452;28;20025;-77
2022/03/26 09:44:35;;;;;;;;;;;14.00;99.90;;;;;;4994584;28;19929;-78
2022/03/26 09:47:03;;;;;;;;;;;14.10;99.90;;;;;;4992003;28;19926;-78
2022/03/26 09:49:30;;;;;;;;;;;14.30;99.90;;;;;;5019896;28;19930;-78
2022/03/26 09:51:57;;;;;;;;;;;14.50;99.90;;;;;;5007734;28;19929;-78
2022/03/26 09:54:23;;;;;;;;;;;14.70;99.90;;;;;;4995725;28;20393;-79
2022/03/26 09:56:50;;;;;;;;;;;14.50;99.90;;;;;;5001247;28;20356;-77
2022/03/26 09:59:16;;;;;;;;;;;14.70;99.90;;;;;;4999312;28;19932;-78
2022/03/26 10:01:43;;;;;;;;;;;14.70;99.90;;;;;;4999193;28;19926;-78
2022/03/26 10:04:09;;;;;;;;;;;14.80;99.90;;;;;;4998083;28;19930;-77
2022/03/26 10:06:36;;;;;;;;;;;14.90;99.90;;;;;;4998086;28;19937;-78
2022/03/26 10:09:03;;;;;;;;;;;14.90;99.90;;;;;;4994360;28;19941;-77
2022/03/26 10:11:29;;;;;;;;;;;15.30;99.90;;;;;;5006280;28;19930;-78
2022/03/26 10:13:56;;;;;;;;;;;15.30;99.90;;;;;;5026848;28;19929;-78
2022/03/26 10:16:22;;;;;;;;;;;15.20;99.70;;;;;;5027061;28;20304;-78
2022/03/26 10:18:50;;;;;;;;;;;15.30;99.90;;;;;;5020524;28;19936;-78
2022/03/26 10:21:17;;;;;;;;;;;15.20;99.90;;;;;;5008226;28;19971;-78
2022/03/26 10:23:43;;;;;;;;;;;15.20;99.90;;;;;;5017484;28;19933;-78
2022/03/26 10:26:10;;;;;;;;;;;15.30;99.20;;;;;;5010713;28;19936;-77
2022/03/26 10:28:37;;;;;;;;;;;15.20;99.80;;;;;;5021859;28;19929;-78
2022/03/26 10:33:47;;;;;;;;;;;15.30;99.50;;;;;;5016943;28;19925;-78
2022/03/26 10:36:14;;;;;;;;;;;15.40;98.70;;;;;;5020186;28;19932;-78
2022/03/26 10:38:42;;;;;;;;;;;15.20;98.90;;;;;;5023327;28;19932;-77
2022/03/26 10:41:08;;;;;;;;;;;15.20;98.30;;;;;;5013660;28;20385;-77
2022/03/26 10:43:35;;;;;;;;;;;15.20;98.40;;;;;;5008232;28;19932;-77
2022/03/26 10:46:01;;;;;;;;;;;15.10;98.40;;;;;;5017883;28;19926;-77
2022/03/26 10:48:28;;;;;;;;;;;15.20;98.80;;;;;;5014279;28;20261;-78
2022/03/26 10:50:54;;;;;;;;;;;15.20;98.00;;;;;;4999386;28;20296;-77
2022/03/26 10:53:21;;;;;;;;;;;15.20;97.90;;;;;;4995267;28;20497;-78
2022/03/26 10:55:47;;;;;;;;;;;15.10;97.50;;;;;;5000563;28;20376;-77
2022/03/26 10:58:14;;;;;;;;;;;15.20;97.50;;;;;;5010636;28;20387;-78
2022/03/26 11:00:41;;;;;;;;;;;14.90;97.80;;;;;;5006655;28;19937;-78
2022/03/26 11:03:08;;;;;;;;;;;14.80;98.00;;;;;;5020566;28;19925;-78
2022/03/26 11:05:34;;;;;;;;;;;15.10;97.40;;;;;;5025372;28;19992;-78
2022/03/26 11:08:01;;;;;;;;;;;14.90;97.90;;;;;;5012178;28;19932;-78
2022/03/26 11:10:28;;;;;;;;;;;14.90;97.90;;;;;;5029387;28;19925;-77
2022/03/26 11:12:54;;;;;;;;;;;15.00;98.30;;;;;;5005004;28;19929;-77
2022/03/26 11:15:21;;;;;;;;;;;15.00;97.60;;;;;;5012880;28;19925;-78
2022/03/26 11:17:47;;;;;;;;;;;15.30;96.90;;;;;;5017518;28;19932;-78
2022/03/26 11:20:14;;;;;;;;;;;15.30;97.40;;;;;;5025332;28;19940;-78
2022/03/26 11:22:40;;;;;;;;;;;15.30;97.20;;;;;;5024213;28;19929;-78
2022/03/26 11:25:07;;;;;;;;;;;15.20;98.00;;;;;;5015949;28;19932;-77
2022/03/26 11:27:33;;;;;;;;;;;15.30;97.20;;;;;;5024999;28;19929;-79
2022/03/26 11:30:00;;;;;;;;;;;15.10;97.80;;;;;;5024106;28;19934;-76
2022/03/26 11:32:26;;;;;;;;;;;15.20;99.60;;;;;;5001547;28;19925;-77
2022/03/26 11:34:53;;;;;;;;;;;15.40;99.30;;;;;;5014196;28;19941;-77
2022/03/26 11:37:19;;;;;;;;;;;15.30;98.60;;;;;;5013400;28;20048;-77
2022/03/26 11:39:46;;;;;;;;;;;15.30;98.70;;;;;;5002084;28;19925;-77
2022/03/26 11:42:13;;;;;;;;;;;15.40;99.10;;;;;;5031553;28;20400;-77
2022/03/26 11:44:39;;;;;;;;;;;15.40;99.70;;;;;;5011422;28;19925;-77
2022/03/26 11:52:34;;;;;;;;;;;15.20;99.90;;;;;;5025814;28;19925;-77
2022/03/26 11:55:01;;;;;;;;;;;15.00;99.90;;;;;;5008981;28;20336;-77
2022/03/26 11:57:28;;;;;;;;;;;14.90;99.90;;;;;;5022030;28;19979;-77
2022/03/26 11:59:55;;;;;;;;;;;14.80;99.90;;;;;;5027780;28;19951;-77
2022/03/26 12:02:21;;;;;;;;;;;14.70;99.90;;;;;;5027287;28;20004;-78
2022/03/26 12:04:48;;;;;;;;;;;14.60;99.90;;;;;;5020072;28;19932;-77
2022/03/26 12:07:15;;;;;;;;;;;14.50;99.90;;;;;;5024353;28;19980;-76
2022/03/26 12:09:41;;;;;;;;;;;14.30;99.90;;;;;;5023317;28;19976;-77
2022/03/26 12:12:10;;;;;;;;;;;14.10;99.90;;;;;;5002670;28;19926;-77
2022/03/26 12:14:36;;;;;;;;;;;14.00;99.90;;;;;;5017835;28;19925;-78
2022/03/26 12:17:03;;;;;;;;;;;13.80;99.90;;;;;;5000518;28;20368;-77
2022/03/26 12:19:30;;;;;;;;;;;13.90;99.90;;;;;;5001330;28;19933;-78
2022/03/26 12:21:56;;;;;;;;;;;13.90;99.90;;;;;;4998564;28;19925;-77
2022/03/26 12:24:23;;;;;;;;;;;13.80;99.90;;;;;;5021199;28;20008;-77
2022/03/26 12:26:49;;;;;;;;;;;13.70;99.90;;;;;;5018072;28;19944;-77
2022/03/26 12:29:16;;;;;;;;;;;13.80;99.90;;;;;;5019029;28;19925;-77
2022/03/26 12:31:42;;;;;;;;;;;13.80;99.90;;;;;;5022887;28;19929;-77
2022/03/26 12:34:09;;;;;;;;;;;13.80;99.90;;;;;;5028403;28;19933;-77
2022/03/26 12:36:35;;;;;;;;;;;13.70;99.90;;;;;;5032571;28;19925;-77
2022/03/26 12:39:02;;;;;;;;;;;13.60;99.90;;;;;;5025183;28;19929;-77
2022/03/26 12:41:29;;;;;;;;;;;13.70;99.90;;;;;;5009465;28;19960;-77
2022/03/26 12:43:55;;;;;;;;;;;13.70;99.90;;;;;;5015386;28;19941;-77
2022/03/26 12:46:22;;;;;;;;;;;13.70;99.90;;;;;;5028982;28;19934;-76
2022/03/26 12:48:48;;;;;;;;;;;13.70;99.90;;;;;;5024000;28;19932;-77
2022/03/26 12:51:15;;;;;;;;;;;13.60;99.90;;;;;;5022475;28;19933;-77
2022/03/26 12:53:41;;;;;;;;;;;13.70;99.90;;;;;;5014816;28;20297;-79
2022/03/26 12:56:08;;;;;;;;;;;13.70;99.90;;;;;;5020526;28;19929;-78
2022/03/26 13:01:19;;;;;;;;;;;13.60;99.90;;;;;;5000581;28;20020;-77
2022/03/26 13:03:45;;;;;;;;;;;13.60;99.90;;;;;;5003547;28;19948;-78
2022/03/26 13:06:12;;;;;;;;;;;13.70;99.90;;;;;;5017106;28;19932;-77
2022/03/26 13:08:38;;;;;;;;;;;13.80;99.90;;;;;;5021767;28;19944;-78
2022/03/26 13:11:05;;;;;;;;;;;13.90;99.90;;;;;;5022134;28;19979;-77
2022/03/26 13:13:32;;;;;;;;;;;14.00;99.90;;;;;;5013654;28;19940;-78
2022/03/26 13:15:58;;;;;;;;;;;14.00;99.90;;;;;;5023269;28;20363;-78
2022/03/26 13:18:25;;;;;;;;;;;14.00;99.90;;;;;;5025033;28;20380;-78
2022/03/26 13:20:51;;;;;;;;;;;14.10;99.90;;;;;;5016716;28;19929;-77
2022/03/26 13:23:18;;;;;;;;;;;14.10;99.90;;;;;;5014005;28;19936;-78
2022/03/26 13:25:45;;;;;;;;;;;14.10;99.90;;;;;;5023401;28;19936;-79
2022/03/26 13:28:12;;;;;;;;;;;13.90;99.90;;;;;;5001982;28;19926;-78
2022/03/26 13:30:38;;;;;;;;;;;14.10;99.90;;;;;;5007168;28;19926;-78
2022/03/26 13:33:05;;;;;;;;;;;14.00;99.90;;;;;;5024633;28;19925;-78
2022/03/26 13:35:32;;;;;;;;;;;13.90;99.90;;;;;;5021005;28;19937;-77
2022/03/26 13:37:58;;;;;;;;;;;14.10;99.90;;;;;;5017098;28;19929;-78
2022/03/26 13:40:25;;;;;;;;;;;14.20;99.90;;;;;;5027107;28;19936;-77
2022/03/26 13:42:52;;;;;;;;;;;14.40;99.90;;;;;;5016073;28;19925;-78
2022/03/26 13:45:19;;;;;;;;;;;13.80;99.90;;;;;;5009642;28;19925;-77
2022/03/26 13:47:45;;;;;;;;;;;13.90;99.90;;;;;;5014907;28;19925;-79
2022/03/26 13:50:12;;;;;;;;;;;14.20;99.90;;;;;;4997096;28;20364;-77
2022/03/26 13:52:38;;;;;;;;;;;14.30;99.90;;;;;;5019154;28;19944;-78
2022/03/26 13:55:05;;;;;;;;;;;14.30;99.90;;;;;;5011069;28;19940;-77
2022/03/26 13:57:32;;;;;;;;;;;14.40;99.90;;;;;;5009996;28;19936;-77
2022/03/26 13:59:59;;;;;;;;;;;14.30;99.90;;;;;;5016177;28;19933;-77
2022/03/26 14:02:26;;;;;;;;;;;14.30;99.90;;;;;;5022440;28;19961;-78
2022/03/26 14:04:52;;;;;;;;;;;14.30;99.90;;;;;;5002002;28;19930;-77
2022/03/26 14:07:19;;;;;;;;;;;14.20;99.90;;;;;;5007385;28;19936;-77
2022/03/26 14:09:45;;;;;;;;;;;14.20;99.90;;;;;;5024045;28;19925;-77
2022/03/26 14:12:12;;;;;;;;;;;14.30;99.90;;;;;;5010522;28;19929;-77
2022/03/26 14:14:38;;;;;;;;;;;14.30;99.90;;;;;;5021984;28;19936;-78
2022/03/26 14:17:05;;;;;;;;;;;14.30;99.90;;;;;;4993740;28;19929;-78
2022/03/26 14:19:31;;;;;;;;;;;14.20;99.90;;;;;;5026504;28;19929;-78
2022/03/26 14:21:58;;;;;;;;;;;14.10;99.90;;;;;;4998698;28;19984;-77
2022/03/26 14:24:25;;;;;;;;;;;14.10;99.90;;;;;;5022914;28;19932;-77
2022/03/26 14:26:51;;;;;;;;;;;14.20;99.90;;;;;;5014291;28;19925;-79
2022/03/26 14:29:18;;;;;;;;;;;14.10;99.90;;;;;;5017340;28;20368;-77
2022/03/26 14:31:44;;;;;;;;;;;14.00;99.90;;;;;;5021163;28;19933;-77